createdAt,value
2023-04-26T00:07:41.936Z,69
2023-04-26T00:17:50.927Z,68
2023-04-26T00:27:59.566Z,65
2023-04-26T00:38:09.078Z,65
2023-04-26T00:48:18.044Z,66
2023-04-26T00:58:27.634Z,65
2023-04-26T01:08:28.410Z,65
2023-04-26T01:18:37.427Z,64
2023-04-26T01:28:46.541Z,64
2023-04-26T01:38:55.520Z,64
2023-04-26T01:49:04.575Z,65
2023-04-26T01:59:14.774Z,64
2023-04-26T02:09:13.958Z,66
2023-04-26T02:19:23.095Z,67
2023-04-26T02:29:43.438Z,68
2023-04-26T02:39:39.571Z,69
2023-04-26T02:49:48.470Z,69
2023-04-26T02:59:50.905Z,68
2023-04-26T03:09:51.041Z,69
2023-04-26T03:20:01.923Z,68
2023-04-26T03:30:08.408Z,68
2023-04-26T03:40:17.590Z,68
2023-04-26T03:50:27.030Z,68
2023-04-26T04:00:36.056Z,69
2023-04-26T04:10:45.567Z,69
2023-04-26T04:20:54.673Z,68
2023-04-26T04:30:57.105Z,66
2023-04-26T04:40:56.304Z,66
2023-04-26T04:51:05.570Z,67
2023-04-26T05:01:10.755Z,68
2023-04-26T05:11:11.210Z,69
2023-04-26T05:21:22.852Z,69
2023-04-26T05:31:24.116Z,69
2023-04-26T05:41:32.907Z,70
2023-04-26T05:51:41.908Z,68
2023-04-26T06:01:42.078Z,68
2023-04-26T06:11:51.475Z,68
2023-04-26T06:22:00.470Z,68
2023-04-26T06:32:00.984Z,67
2023-04-26T06:42:10.138Z,66
2023-04-26T06:52:20.580Z,65
2023-04-26T07:02:29.025Z,64
2023-04-26T07:12:29.691Z,61
2023-04-26T07:22:42.642Z,56
2023-04-26T07:32:42.073Z,52
2023-04-26T07:42:51.124Z,50
2023-04-26T07:52:53.089Z,48
2023-04-26T08:03:02.863Z,46
2023-04-26T08:13:03.683Z,45
2023-04-26T08:33:37.352Z,43
2023-04-26T09:03:32.725Z,50
2023-04-26T09:13:36.293Z,54
2023-04-26T09:23:37.908Z,53
2023-04-26T09:33:44.311Z,54
2023-04-26T09:43:47.014Z,55
2023-04-26T09:54:04.615Z,53
2023-04-26T10:04:05.024Z,55
2023-04-26T10:14:06.859Z,56
2023-04-26T10:24:10.791Z,57
2023-04-26T10:34:12.004Z,58
2023-04-26T10:44:10.968Z,58
2023-04-26T10:54:12.728Z,58
2023-04-26T11:04:28.618Z,58
2023-04-26T11:14:16.552Z,57
2023-04-26T11:24:20.583Z,57
2023-04-26T11:34:19.467Z,57
2023-04-26T11:44:28.494Z,58
2023-04-26T11:54:37.592Z,59
2023-04-26T12:04:47.094Z,59
2023-04-26T12:14:47.225Z,59
2023-04-26T12:24:57.457Z,58
2023-04-26T12:34:57.623Z,61
2023-04-26T12:45:09.024Z,60
2023-04-26T12:55:13.991Z,61
2023-04-26T13:05:15.499Z,61
2023-04-26T13:15:24.603Z,62
2023-04-26T13:25:33.547Z,61
2023-04-26T13:35:37.963Z,60
2023-04-26T13:45:43.421Z,58
2023-04-26T13:55:50.056Z,56
2023-04-26T14:05:52.427Z,57
2023-04-26T14:16:02.145Z,56
2023-04-26T14:26:11.131Z,59
2023-04-26T14:36:20.226Z,59
2023-04-26T14:46:31.561Z,59
2023-04-26T14:56:35.274Z,60
2023-04-26T15:06:37.252Z,59
2023-04-26T15:16:46.353Z,61
2023-04-26T15:26:47.038Z,61
2023-04-26T15:36:47.256Z,60
2023-04-26T15:46:56.929Z,60
2023-04-26T15:57:00.799Z,61
2023-04-26T16:07:00.172Z,61
2023-04-26T16:17:10.167Z,62
2023-04-26T16:27:19.634Z,62
2023-04-26T16:37:23.435Z,62
2023-04-26T16:47:25.475Z,61
2023-04-26T16:57:26.891Z,62
2023-04-26T17:07:26.561Z,64
2023-04-26T17:17:36.059Z,64
2023-04-26T17:27:45.147Z,65
2023-04-26T17:37:54.160Z,65
2023-04-26T17:47:56.639Z,65
2023-04-26T17:58:05.437Z,65
2023-04-26T18:08:14.372Z,66
2023-04-26T18:18:24.059Z,66
2023-04-26T18:28:33.837Z,66
2023-04-26T18:38:32.744Z,68
2023-04-26T18:48:51.636Z,69
2023-04-26T18:58:54.323Z,68
2023-04-26T19:08:54.824Z,69
2023-04-26T19:18:55.781Z,69
2023-04-26T19:28:57.542Z,69
2023-04-26T19:39:14.998Z,68
2023-04-26T19:49:13.009Z,66
2023-04-26T19:59:14.524Z,66
2023-04-26T20:09:26.607Z,66
2023-04-26T20:19:23.809Z,64
2023-04-26T20:29:23.732Z,64
2023-04-26T20:39:33.110Z,63
2023-04-26T20:49:42.322Z,62
2023-04-26T20:59:44.612Z,62
2023-04-26T21:09:43.491Z,63
2023-04-26T21:19:53.448Z,64
2023-04-26T21:30:02.252Z,64
2023-04-26T21:40:14.022Z,63
2023-04-26T21:50:14.007Z,64
2023-04-26T22:00:23.156Z,63
2023-04-26T22:10:25.227Z,63
2023-04-26T22:20:24.970Z,63
2023-04-26T22:30:34.142Z,63
2023-04-26T22:40:43.407Z,64
2023-04-26T22:50:52.723Z,65
2023-04-26T23:01:02.264Z,65
2023-04-26T23:11:11.388Z,64
2023-04-26T23:21:12.282Z,65
2023-04-26T23:31:21.064Z,65
2023-04-26T23:41:30.160Z,65
2023-04-26T23:51:39.089Z,65
